Time;durP1;ratioP1;P1;durP2;ratioP2;P2;SDS_P1;SDS_P2;PMS_P1;PMS_P2;Temp;Humidity;BMP_temperature;BMP_pressure;BME280_temperature;BME280_humidity;BME280_pressure;Samples;Min_cycle;Max_cycle;Signal;HPM_P1;HPM_P2
2022/01/15 00:02:25;;;;;;;25.43;4.90;;;;;;;0.40;84.87;102001.07;1597460;88;20994;-74
2022/01/15 00:04:51;;;;;;;26.30;5.03;;;;;;;0.35;84.87;102001.66;1595684;88;20981;-74
2022/01/15 00:07:17;;;;;;;22.60;5.80;;;;;;;0.32;84.90;102013.42;1601540;88;20937;-74
2022/01/15 00:09:49;;;;;;;28.25;8.48;;;;;;;0.28;84.92;102004.30;1581507;89;20915;-74
2022/01/15 00:12:11;;;;;;;33.18;10.35;;;;;;;0.25;84.93;102006.70;1589688;88;20982;-74
2022/01/15 00:14:41;;;;;;;37.58;11.28;;;;;;;0.20;84.96;102005.61;1598822;88;20957;-74
2022/01/15 00:17:07;;;;;;;38.40;9.95;;;;;;;0.18;85.00;101999.57;1605451;89;20978;-75
2022/01/15 00:19:41;;;;;;;33.58;9.38;;;;;;;0.17;85.05;101999.09;1601834;88;21834;-75
2022/01/15 00:22:12;;;;;;;18.82;7.47;;;;;;;0.17;85.05;102004.19;1585898;89;20945;-75
2022/01/15 00:24:38;;;;;;;31.35;8.60;;;;;;;0.16;85.08;102003.31;1578458;89;20958;-74
2022/01/15 00:27:05;;;;;;;;;;;;;;;0.16;85.06;102004.98;1567644;89;20965;-74
2022/01/15 00:29:32;;;;;;;19.73;7.20;;;;;;;0.15;85.09;102009.20;1606118;89;20764;-74
2022/01/15 00:31:59;;;;;;;;;;;;;;;0.15;85.10;102004.51;1560235;89;21117;-74
2022/01/15 00:34:26;;;;;;;27.37;6.78;;;;;;;0.16;85.21;101995.68;1580574;89;20102;-74
2022/01/15 00:36:52;;;;;;;23.45;6.62;;;;;;;0.17;85.20;101990.20;1591016;89;20957;-74
2022/01/15 00:39:18;;;;;;;19.42;5.85;;;;;;;0.16;85.16;101994.41;1592768;89;20985;-74
2022/01/15 00:41:44;;;;;;;28.92;6.25;;;;;;;0.15;85.16;101988.84;1595733;88;21027;-74
2022/01/15 00:44:10;;;;;;;13.03;4.90;;;;;;;0.15;85.16;101993.94;1583763;89;21320;-74
2022/01/15 00:46:36;;;;;;;14.15;4.17;;;;;;;0.16;85.10;101993.54;1590931;89;20914;-74
2022/01/15 00:49:03;;;;;;;25.95;5.28;;;;;;;0.14;85.11;101992.19;1606163;89;21463;-75
2022/01/15 00:51:29;;;;;;;17.82;4.30;;;;;;;0.13;85.10;101989.58;1565688;90;21000;-74
2022/01/15 00:53:55;;;;;;;19.77;3.87;;;;;;;0.11;85.12;101990.77;1548733;89;20997;-74
2022/01/15 00:56:21;;;;;;;23.40;5.15;;;;;;;0.08;85.05;101990.63;1523580;91;21011;-74
2022/01/15 00:58:47;;;;;;;16.40;4.05;;;;;;;0.08;85.07;101993.56;1572089;90;21621;-75
2022/01/15 01:01:13;;;;;;;22.07;4.92;;;;;;;0.06;85.15;101989.67;1571091;90;20951;-74
2022/01/15 01:03:39;;;;;;;19.98;5.58;;;;;;;0.08;85.17;101991.89;1572547;90;21002;-74
2022/01/15 01:06:05;;;;;;;21.70;4.35;;;;;;;0.05;85.12;101989.59;1565320;90;21190;-74
2022/01/15 01:08:31;;;;;;;21.15;4.45;;;;;;;0.02;85.03;101994.54;1567990;90;20903;-74
2022/01/15 01:10:59;;;;;;;19.73;5.15;;;;;;;-0.02;85.08;101986.80;1574937;90;20943;-74
2022/01/15 01:13:41;;;;;;;19.35;4.95;;;;;;;-0.03;85.11;101993.95;1565320;89;20962;-74
2022/01/15 01:24:08;;;;;;;19.15;4.47;;;;;;;-0.09;85.18;102002.94;1546782;90;20975;-74
2022/01/15 01:26:45;;;;;;;18.45;4.67;;;;;;;-0.10;85.22;102003.34;1571506;89;20983;-74
2022/01/15 01:31:39;;;;;;;16.67;4.92;;;;;;;-0.12;85.19;102002.79;1516059;90;21071;-74
2022/01/15 01:34:07;;;;;;;29.48;5.60;;;;;;;-0.13;85.22;102001.91;1543319;90;20943;-75
2022/01/15 01:36:44;;;;;;;16.00;5.50;;;;;;;-0.12;85.27;101998.58;1566291;89;21022;-75
2022/01/15 01:39:09;;;;;;;32.63;5.50;;;;;;;-0.12;85.26;101994.77;1557763;90;20915;-74
2022/01/15 01:41:36;;;;;;;21.33;5.40;;;;;;;-0.12;85.23;101993.89;1576546;90;20979;-74
2022/01/15 01:44:02;;;;;;;22.45;5.47;;;;;;;-0.13;85.24;101998.50;1564071;90;21009;-74
2022/01/15 01:48:55;;;;;;;;;;;;;;;-0.14;85.25;102002.72;1568618;89;20911;-74
2022/01/15 01:51:30;;;;;;;22.02;4.72;;;;;;;-0.13;85.33;102003.19;1576721;89;20454;-74
2022/01/15 01:54:00;;;;;;;27.10;5.70;;;;;;;-0.12;85.35;102003.66;1551817;90;21011;-74
2022/01/15 01:56:26;;;;;;;31.17;5.25;;;;;;;-0.11;85.37;102005.41;1569486;90;20987;-75
2022/01/15 01:58:52;;;;;;;23.50;5.75;;;;;;;-0.10;85.31;102003.34;1562338;90;20999;-75
2022/01/15 02:01:19;;;;;;;21.57;5.10;;;;;;;-0.12;85.27;102001.12;1573843;90;20987;-75
2022/01/15 02:03:45;;;;;;;24.95;5.12;;;;;;;-0.11;85.33;101985.47;1566196;90;20987;-75
2022/01/15 02:06:11;;;;;;;29.77;5.95;;;;;;;-0.12;85.26;101981.18;1588976;89;20922;-74
2022/01/15 02:08:38;;;;;;;25.70;5.85;;;;;;;-0.15;85.22;101982.30;1571362;90;20950;-74
2022/01/15 02:11:06;;;;;;;19.10;5.10;;;;;;;-0.15;85.22;101982.30;1550763;90;20958;-74
2022/01/15 02:13:37;;;;;;;23.85;5.12;;;;;;;-0.16;85.26;101983.09;1560127;90;20915;-74
2022/01/15 02:16:03;;;;;;;24.35;5.40;;;;;;;-0.16;85.33;101985.64;1574444;90;20975;-74
2022/01/15 02:18:29;;;;;;;28.67;5.12;;;;;;;-0.17;85.28;101988.98;1586589;88;21010;-74
2022/01/15 02:23:36;;;;;;;28.12;5.03;;;;;;;-0.17;85.39;101984.77;1591489;88;20906;-74
2022/01/15 02:26:05;;;;;;;26.15;5.00;;;;;;;-0.16;85.36;101982.70;1589659;88;21084;-74
2022/01/15 02:28:38;;;;;;;17.37;4.40;;;;;;;-0.16;85.35;101990.33;1587230;88;20978;-74
2022/01/15 02:31:16;;;;;;;16.95;3.98;;;;;;;-0.17;85.33;101987.31;1593845;88;20950;-74
2022/01/15 02:33:46;;;;;;;19.80;5.67;;;;;;;-0.16;85.32;101981.83;1593466;88;21121;-74
2022/01/15 02:36:20;;;;;;;24.63;4.67;;;;;;;-0.17;85.33;101978.41;1570857;89;20909;-74
2022/01/15 02:38:48;;;;;;;25.00;4.50;;;;;;;-0.18;85.31;101977.06;1598157;88;21053;-74
2022/01/15 02:41:17;;;;;;;16.70;3.87;;;;;;;-0.20;85.31;101969.77;1594405;87;21080;-74
2022/01/15 02:43:43;;;;;;;25.62;4.70;;;;;;;-0.20;85.37;101979.53;1591684;88;21089;-74
2022/01/15 02:46:23;;;;;;;31.17;5.15;;;;;;;-0.20;85.38;101979.53;1597620;88;21105;-74
2022/01/15 02:48:51;;;;;;;19.30;4.83;;;;;;;-0.22;85.35;101976.44;1592499;88;21080;-74
2022/01/15 02:51:20;;;;;;;12.55;4.00;;;;;;;-0.22;85.39;101978.58;1598941;88;21100;-74
2022/01/15 02:53:54;;;;;;;19.98;4.45;;;;;;;-0.22;85.41;101975.17;1595458;88;21037;-75
2022/01/15 02:56:15;;;;;;;20.88;4.00;;;;;;;-0.22;85.43;101972.63;1596280;88;20934;-75
2022/01/15 02:58:41;;;;;;;15.43;4.17;;;;;;;-0.22;85.40;101982.39;1599221;88;20917;-75
2022/01/15 03:01:07;;;;;;;20.52;4.42;;;;;;;-0.21;85.42;101980.73;1566463;89;20964;-75
2022/01/15 03:03:39;;;;;;;23.75;5.42;;;;;;;-0.23;85.38;101970.88;1599038;88;20990;-75
2022/01/15 03:06:11;;;;;;;21.35;4.05;;;;;;;-0.28;85.34;101973.20;1598211;88;20898;-75
2022/01/15 03:08:40;;;;;;;29.35;4.80;;;;;;;-0.30;85.34;101967.56;1596807;88;20997;-75
2022/01/15 03:11:07;;;;;;;15.48;4.50;;;;;;;-0.30;85.40;101968.83;1599047;88;20939;-75
2022/01/15 03:13:35;;;;;;;22.58;5.83;;;;;;;-0.30;85.41;101971.38;1598718;88;20983;-75
2022/01/15 03:16:06;;;;;;;17.05;4.75;;;;;;;-0.30;85.44;101977.33;1601288;88;21419;-75
2022/01/15 03:18:33;;;;;;;22.75;3.98;;;;;;;-0.31;85.46;101976.86;1577545;89;21398;-75
2022/01/15 03:20:59;;;;;;;21.60;4.78;;;;;;;-0.32;85.37;101978.05;1601023;88;20977;-75
2022/01/15 03:23:25;;;;;;;22.10;4.60;;;;;;;-0.32;85.41;101979.32;1602176;88;20977;-75
2022/01/15 03:25:51;;;;;;;19.55;4.62;;;;;;;-0.34;85.41;101981.78;1595980;88;20966;-75
2022/01/15 03:28:17;;;;;;;30.50;5.30;;;;;;;-0.36;85.38;101982.11;1600138;88;21017;-75
2022/01/15 03:30:43;;;;;;;19.77;4.65;;;;;;;-0.37;85.42;101979.96;1598718;88;20954;-75
2022/01/15 03:33:09;;;;;;;27.02;5.30;;;;;;;-0.37;85.44;101984.17;1584966;89;20991;-75
2022/01/15 03:35:37;;;;;;;16.82;4.17;;;;;;;-0.39;85.40;101976.87;1585599;88;20966;-75
2022/01/15 03:38:06;;;;;;;27.73;4.92;;;;;;;-0.42;85.41;101983.06;1601483;88;21049;-75
2022/01/15 03:40:33;;;;;;;26.17;5.30;;;;;;;-0.43;85.46;101977.11;1599353;88;21052;-75
2022/01/15 03:43:00;;;;;;;23.92;5.15;;;;;;;-0.44;85.43;101971.95;1598298;88;21403;-75
2022/01/15 03:45:26;;;;;;;19.50;4.60;;;;;;;-0.48;85.36;101972.20;1603398;87;21054;-75
2022/01/15 03:47:52;;;;;;;;;;;;;;;-0.51;85.41;101972.05;1591673;89;21004;-75
2022/01/15 03:50:19;;;;;;;25.88;4.42;;;;;;;-0.51;85.45;101971.17;1551924;90;20218;-75
2022/01/15 03:52:46;;;;;;;17.45;4.37;;;;;;;-0.53;85.44;101974.06;1603076;89;21124;-75
2022/01/15 03:55:14;;;;;;;24.95;4.90;;;;;;;-0.54;85.51;101971.05;1549959;90;21529;-75
2022/01/15 03:57:41;;;;;;;23.10;4.42;;;;;;;-0.53;85.55;101974.06;1576361;90;21056;-75
2022/01/15 04:00:11;;;;;;;;;;;;;;;-0.54;85.54;101971.92;1581266;90;21070;-75
2022/01/15 04:02:37;;;;;;;24.05;5.15;;;;;;;-0.55;85.56;101976.92;1577355;89;20199;-75
2022/01/15 04:05:03;;;;;;;25.32;5.20;;;;;;;-0.57;85.53;101981.05;1572733;90;21115;-75
2022/01/15 04:07:29;;;;;;;23.92;4.58;;;;;;;-0.57;85.60;101984.47;1577664;89;21136;-75
2022/01/15 04:09:55;;;;;;;22.27;4.90;;;;;;;-0.56;85.55;101988.75;1577203;89;20912;-75
2022/01/15 04:12:21;;;;;;;24.93;5.13;;;;;;;-0.56;85.49;101991.69;1593003;88;21685;-75
2022/01/15 04:14:47;;;;;;;29.90;5.92;;;;;;;-0.56;85.49;101991.69;1589248;88;21029;-75
2022/01/15 04:17:13;;;;;;;26.97;4.83;;;;;;;-0.57;85.54;101986.13;1599662;88;22705;-75
2022/01/15 04:19:40;;;;;;;18.90;5.65;;;;;;;-0.58;85.56;101986.53;1584058;89;21366;-75
2022/01/15 04:22:07;;;;;;;25.88;4.58;;;;;;;-0.58;85.54;101981.84;1600973;87;21124;-75
2022/01/15 04:24:32;;;;;;;;;;;;;;;-0.58;85.54;101985.66;1605183;87;21088;-75
2022/01/15 04:26:58;;;;;;;15.95;4.20;;;;;;;-0.60;85.59;101985.58;1609585;87;20289;-75
2022/01/15 04:29:24;;;;;;;13.43;4.22;;;;;;;-0.60;85.55;101989.78;1584311;89;21030;-75
2022/01/15 04:31:51;;;;;;;20.27;3.67;;;;;;;-0.62;85.58;101983.36;1586178;89;21417;-74
2022/01/15 04:34:21;;;;;;;17.65;4.85;;;;;;;-0.62;85.61;101978.67;1583663;88;22156;-75
2022/01/15 04:37:03;;;;;;;17.45;4.12;;;;;;;-0.63;85.57;101980.73;1605914;87;21616;-75
2022/01/15 04:39:26;;;;;;;21.77;4.90;;;;;;;-0.64;85.58;101977.33;1584078;89;21086;-75
2022/01/15 04:41:51;;;;;;;22.27;5.95;;;;;;;-0.64;85.63;101978.59;1609602;87;21581;-75
2022/01/15 04:44:17;;;;;;;27.67;4.47;;;;;;;-0.65;85.57;101987.02;1581728;89;20999;-75
2022/01/15 04:46:46;;;;;;;20.48;4.05;;;;;;;-0.64;85.65;101995.11;1606558;87;21099;-75
2022/01/15 04:49:12;;;;;;;22.35;4.55;;;;;;;-0.62;85.68;101993.91;1561343;90;21130;-75
2022/01/15 04:51:39;;;;;;;13.65;3.08;;;;;;;-0.64;85.56;101995.11;1600502;87;21568;-75
2022/01/15 04:54:05;;;;;;;20.50;5.12;;;;;;;-0.66;85.57;101995.42;1584685;89;21546;-75
2022/01/15 04:56:31;;;;;;;19.82;4.70;;;;;;;-0.67;85.57;101992.41;1585475;87;21653;-75
2022/01/15 04:58:57;;;;;;;19.70;4.50;;;;;;;-0.68;85.59;101996.61;1599823;87;21116;-75
2022/01/15 05:01:23;;;;;;;20.02;4.25;;;;;;;-0.68;85.58;101990.66;1607080;87;21169;-75
2022/01/15 05:03:49;;;;;;;16.95;4.42;;;;;;;-0.71;85.56;101992.65;1605833;87;21680;-75
2022/01/15 05:06:16;;;;;;;24.60;4.83;;;;;;;-0.73;85.53;102000.59;1597156;87;20914;-75
2022/01/15 05:08:52;;;;;;;18.42;4.78;;;;;;;-0.73;85.56;102000.98;1606413;87;21112;-75
2022/01/15 05:11:28;;;;;;;20.15;5.00;;;;;;;-0.75;85.58;102003.44;1603661;87;21084;-75
2022/01/15 05:13:43;;;;;;;23.35;4.67;;;;;;;-0.75;85.61;102000.90;1601108;87;21137;-75
2022/01/15 05:16:09;;;;;;;23.22;4.95;;;;;;;-0.74;85.60;101999.23;1606260;87;20921;-75
2022/01/15 05:18:35;;;;;;;24.30;5.50;;;;;;;-0.75;85.62;102001.30;1562919;89;21761;-75
2022/01/15 05:21:01;;;;;;;20.75;5.42;;;;;;;-0.74;85.65;101997.97;1577380;89;20929;-75
2022/01/15 05:23:28;;;;;;;25.12;5.45;;;;;;;-0.75;85.65;102006.37;1571078;89;28096;-75
2022/01/15 05:25:54;;;;;;;20.32;5.12;;;;;;;-0.75;85.67;102004.71;1550387;90;26193;-76
2022/01/15 05:28:26;;;;;;;22.87;5.08;;;;;;;-0.73;85.67;102004.39;1555763;90;21090;-76
2022/01/15 05:30:52;;;;;;;27.00;5.42;;;;;;;-0.72;85.63;102006.53;1568427;89;21536;-76
2022/01/15 05:33:18;;;;;;;23.25;6.10;;;;;;;-0.70;85.72;102008.76;1560649;89;20949;-75
2022/01/15 05:35:44;;;;;;;24.87;6.80;;;;;;;-0.69;85.75;102013.92;1567671;89;20949;-76
2022/01/15 05:38:10;;;;;;;24.72;6.90;;;;;;;-0.65;85.78;102020.43;1571799;89;21714;-76
2022/01/15 05:40:37;;;;;;;23.00;6.12;;;;;;;-0.62;85.80;102026.54;1551531;90;21098;-76
2022/01/15 05:43:03;;;;;;;27.02;6.78;;;;;;;-0.59;85.80;102028.37;1568451;89;27465;-76
2022/01/15 05:45:29;;;;;;;30.35;7.45;;;;;;;-0.54;85.88;102028.20;1556359;90;21126;-76
2022/01/15 05:47:55;;;;;;;26.82;7.67;;;;;;;-0.50;85.90;102029.68;1567510;89;21747;-75
2022/01/15 05:50:24;;;;;;;27.67;6.97;;;;;;;-0.46;85.90;102031.58;1569812;89;21591;-75
2022/01/15 05:52:50;;;;;;;23.42;6.25;;;;;;;-0.43;85.89;102033.02;1551379;90;21494;-75
2022/01/15 05:55:16;;;;;;;27.10;8.15;;;;;;;-0.42;85.82;102037.70;1548236;90;21788;-75
2022/01/15 05:57:42;;;;;;;29.45;6.87;;;;;;;-0.39;85.88;102033.64;1566116;89;21545;-75
2022/01/15 06:00:10;;;;;;;26.42;7.40;;;;;;;-0.34;85.90;102036.42;1571275;88;20962;-75
2022/01/15 06:02:36;;;;;;;28.67;8.18;;;;;;;-0.33;85.90;102026.73;1598218;88;21620;-76
2022/01/15 06:05:03;;;;;;;29.70;6.78;;;;;;;-0.29;85.89;102023.95;1597131;88;21692;-76
2022/01/15 06:07:29;;;;;;;17.95;5.35;;;;;;;-0.28;85.88;102024.02;1589783;88;21576;-76
2022/01/15 06:09:55;;;;;;;26.97;7.00;;;;;;;-0.25;85.92;102020.77;1596054;88;21105;-76
2022/01/15 06:12:28;;;;;;;23.38;6.15;;;;;;;-0.22;85.93;102023.46;1596410;88;21714;-76
2022/01/15 06:14:48;;;;;;;22.73;5.22;;;;;;;-0.21;85.85;102023.94;1573062;89;21671;-76
2022/01/15 06:17:14;;;;;;;23.60;5.25;;;;;;;-0.21;85.92;102023.54;1570340;89;20977;-76
2022/01/15 06:19:42;;;;;;;34.83;6.05;;;;;;;-0.18;85.94;102030.05;1546672;90;21812;-75
2022/01/15 06:22:10;;;;;;;22.95;5.72;;;;;;;-0.16;85.96;102025.91;1566294;89;21602;-75
2022/01/15 06:24:37;;;;;;;23.38;6.75;;;;;;;-0.13;86.01;102028.61;1585115;88;21058;-75
2022/01/15 06:27:03;;;;;;;16.07;4.50;;;;;;;-0.12;85.96;102034.56;1569308;89;21061;-75
2022/01/15 06:29:30;;;;;;;31.55;6.30;;;;;;;-0.09;86.02;102029.23;1574259;89;21661;-75
2022/01/15 06:31:56;;;;;;;29.60;5.85;;;;;;;-0.08;85.95;102026.30;1596203;88;20969;-75
2022/01/15 06:34:22;;;;;;;29.30;7.33;;;;;;;-0.08;85.96;102029.71;1598351;88;20941;-76
2022/01/15 06:36:48;;;;;;;25.77;6.25;;;;;;;-0.07;85.96;102029.31;1596135;88;21005;-76
2022/01/15 06:39:16;;;;;;;31.97;6.90;;;;;;;-0.06;85.97;102029.39;1600603;88;21680;-76
2022/01/15 06:41:42;;;;;;;29.35;7.67;;;;;;;-0.06;85.97;102027.25;1596405;88;21116;-76
2022/01/15 06:44:09;;;;;;;33.95;6.97;;;;;;;-0.05;85.96;102031.53;1596402;88;27564;-76
2022/01/15 06:46:35;;;;;;;32.42;6.75;;;;;;;-0.06;85.88;102033.60;1571468;89;21767;-76
2022/01/15 06:49:01;;;;;;;29.85;7.25;;;;;;;-0.07;85.90;102033.13;1572648;89;21051;-76
2022/01/15 06:51:27;;;;;;;21.02;7.22;;;;;;;-0.09;85.91;102035.59;1573400;89;21922;-76
2022/01/15 06:53:53;;;;;;;23.77;6.75;;;;;;;-0.11;85.93;102039.73;1597108;88;21472;-76
2022/01/15 06:56:20;;;;;;;30.72;6.62;;;;;;;-0.10;85.99;102040.20;1598999;88;21402;-76
2022/01/15 06:58:49;;;;;;;24.18;6.40;;;;;;;-0.08;86.04;102042.82;1599401;88;21144;-76
2022/01/15 07:01:15;;;;;;;24.15;6.03;;;;;;;-0.07;86.00;102047.11;1569617;89;20941;-76
2022/01/15 07:03:41;;;;;;;23.67;6.83;;;;;;;-0.09;85.96;102055.06;1597497;88;27391;-75
2022/01/15 07:06:08;;;;;;;;;;;;;;;-0.09;86.03;102059.74;1599077;88;21062;-75
2022/01/15 07:08:34;;;;;;;21.95;5.17;;;;;;;-0.08;86.09;102065.70;1598832;88;20252;-76
2022/01/15 07:11:00;;;;;;;25.45;5.92;;;;;;;-0.07;86.06;102064.51;1598047;88;21623;-76
2022/01/15 07:13:26;;;;;;;38.30;7.12;;;;;;;-0.05;86.09;102068.40;1577676;88;21411;-76
2022/01/15 07:15:53;;;;;;;30.02;6.35;;;;;;;-0.04;86.08;102068.48;1600803;88;21065;-76
2022/01/15 07:18:19;;;;;;;;;;;;;;;-0.02;86.10;102066.02;1601581;88;21635;-76
2022/01/15 07:20:51;;;;;;;20.92;5.12;;;;;;;-0.01;86.15;102059.73;1606298;87;20229;-76
2022/01/15 07:23:16;;;;;;;21.75;5.53;;;;;;;-0.01;86.06;102063.55;1611318;87;21482;-75
2022/01/15 07:25:42;;;;;;;27.30;5.95;;;;;;;-0.01;86.09;102068.63;1608583;87;20921;-75
2022/01/15 07:28:08;;;;;;;22.90;5.60;;;;;;;0.02;86.13;102067.87;1611489;87;20932;-75
2022/01/15 07:30:35;;;;;;;20.27;5.85;;;;;;;0.04;86.12;102066.68;1606713;87;21089;-75
2022/01/15 07:33:02;;;;;;;24.55;6.85;;;;;;;0.06;86.07;102067.63;1607860;87;21180;-75
2022/01/15 07:35:28;;;;;;;25.92;6.40;;;;;;;0.03;86.03;102071.30;1605435;87;21076;-75
2022/01/15 07:37:56;;;;;;;22.75;5.72;;;;;;;0.01;86.03;102076.30;1583871;89;21144;-75
2022/01/15 07:40:22;;;;;;;27.98;6.60;;;;;;;0.00;86.06;102077.97;1586122;88;21768;-75
2022/01/15 07:42:48;;;;;;;24.18;4.90;;;;;;;0.01;86.09;102080.11;1583553;89;21162;-76
2022/01/15 07:45:17;;;;;;;16.55;5.95;;;;;;;0.03;86.07;102082.73;1609036;87;21152;-76
2022/01/15 07:47:44;;;;;;;21.93;5.90;;;;;;;0.02;86.08;102084.41;1583097;89;21021;-76
2022/01/15 07:50:15;;;;;;;23.50;5.47;;;;;;;0.02;86.04;102088.62;1611449;87;20940;-76
2022/01/15 07:52:41;;;;;;;17.48;5.83;;;;;;;0.00;86.01;102093.23;1608919;87;22033;-74
2022/01/15 07:55:09;;;;;;;19.65;5.50;;;;;;;0.02;86.06;102092.43;1585040;89;21108;-77
2022/01/15 07:57:35;;;;;;;17.70;5.17;;;;;;;-0.01;86.03;102087.70;1607883;87;21012;-74
2022/01/15 08:00:04;;;;;;;18.77;6.00;;;;;;;-0.01;86.04;102090.64;1606579;87;21032;-72
2022/01/15 08:02:30;;;;;;;20.85;5.42;;;;;;;0.00;86.09;102105.10;1582314;89;21067;-72
2022/01/15 08:04:56;;;;;;;14.53;4.80;;;;;;;-0.02;86.11;102101.21;1609737;87;20952;-72
2022/01/15 08:07:22;;;;;;;18.10;5.10;;;;;;;0.02;86.15;102096.25;1604837;87;20996;-74
2022/01/15 08:09:48;;;;;;;18.48;5.60;;;;;;;0.03;86.07;102092.51;1608385;87;21136;-74
2022/01/15 08:12:15;;;;;;;20.77;6.70;;;;;;;0.03;86.10;102087.42;1585127;88;21098;-75
2022/01/15 08:14:42;;;;;;;11.75;4.97;;;;;;;0.02;86.04;102097.12;1560291;90;21093;-74
2022/01/15 08:17:08;;;;;;;12.37;5.53;;;;;;;0.03;86.09;102097.99;1590209;88;21090;-74
2022/01/15 08:19:34;;;;;;;19.60;5.62;;;;;;;0.02;86.05;102102.20;1586635;88;21827;-74
2022/01/15 08:22:00;;;;;;;16.50;5.08;;;;;;;0.00;86.13;102096.20;1567365;89;22827;-75
2022/01/15 08:24:26;;;;;;;16.35;5.80;;;;;;;0.03;86.17;102096.72;1601532;88;21141;-75
2022/01/15 08:26:52;;;;;;;20.50;5.95;;;;;;;0.04;86.14;102099.34;1599659;88;21072;-75
2022/01/15 08:29:19;;;;;;;18.65;5.47;;;;;;;0.07;86.19;102105.86;1600011;88;21621;-75
2022/01/15 08:31:45;;;;;;;17.77;5.28;;;;;;;0.09;86.16;102109.34;1572372;89;21119;-75
2022/01/15 08:34:11;;;;;;;18.57;6.37;;;;;;;0.12;86.22;102111.17;1572649;89;21063;-75
2022/01/15 08:36:37;;;;;;;17.65;7.00;;;;;;;0.16;86.26;102114.34;1605744;88;21141;-76
2022/01/15 08:39:05;;;;;;;18.73;6.20;;;;;;;0.18;86.25;102114.90;1598067;88;21704;-76
2022/01/15 08:41:31;;;;;;;16.32;5.42;;;;;;;0.22;86.26;102110.44;1572147;89;20957;-76
2022/01/15 08:43:58;;;;;;;12.98;5.25;;;;;;;0.26;86.20;102110.19;1577109;89;21000;-77
2022/01/15 08:46:24;;;;;;;12.43;5.70;;;;;;;0.28;86.18;102118.77;1599572;88;20971;-76
2022/01/15 08:48:51;;;;;;;12.30;4.55;;;;;;;0.23;86.08;102115.13;1595524;88;20945;-76
2022/01/15 08:51:17;;;;;;;14.90;5.37;;;;;;;0.24;86.18;102115.20;1549756;91;21012;-76
2022/01/15 08:53:43;;;;;;;15.58;5.60;;;;;;;0.24;86.19;102109.24;1597839;88;20918;-76
2022/01/15 08:56:09;;;;;;;17.20;5.37;;;;;;;0.27;86.22;102117.03;1572033;89;21031;-78
2022/01/15 08:58:36;;;;;;;20.30;6.10;;;;;;;0.32;86.29;102119.00;1598513;88;20907;-75
2022/01/15 09:01:04;;;;;;;15.15;6.22;;;;;;;0.38;86.33;102123.52;1559602;89;20934;-77
2022/01/15 09:03:35;;;;;;;15.58;6.08;;;;;;;0.42;86.33;102122.88;1590000;87;20957;-76
2022/01/15 09:06:01;;;;;;;22.85;6.45;;;;;;;0.48;86.38;102124.45;1604046;88;20958;-77
2022/01/15 09:08:28;;;;;;;21.37;6.40;;;;;;;0.53;86.40;102115.34;1599427;88;20954;-77
2022/01/15 09:10:54;;;;;;;23.05;6.05;;;;;;;0.57;86.38;102118.91;1598468;88;21072;-77
2022/01/15 09:13:21;;;;;;;18.48;5.42;;;;;;;0.60;86.34;102121.59;1589907;88;22320;-75
2022/01/15 09:15:49;;;;;;;20.43;6.87;;;;;;;0.64;86.39;102124.37;1569813;89;21056;-77
2022/01/15 09:18:16;;;;;;;16.25;5.42;;;;;;;0.70;86.42;102122.52;1571797;89;21308;-74
2022/01/15 09:20:42;;;;;;;19.02;5.50;;;;;;;0.73;86.36;102128.16;1598045;88;21085;-73
2022/01/15 09:23:09;;;;;;;15.28;5.60;;;;;;;0.74;86.34;102129.50;1589913;88;21718;-78
2022/01/15 09:25:35;;;;;;;15.70;6.28;;;;;;;0.79;86.37;102125.91;1592473;88;20970;-69
2022/01/15 09:30:50;;;;;;;17.52;5.28;;;;;;;0.85;86.38;102133.84;1594333;88;21380;-72
2022/01/15 09:33:16;;;;;;;15.72;5.85;;;;;;;0.89;86.37;102131.91;1558522;90;21053;-72
2022/01/15 09:35:42;;;;;;;16.45;6.15;;;;;;;0.95;86.44;102134.75;1548114;91;21638;-73
2022/01/15 09:38:09;;;;;;;19.60;6.95;;;;;;;1.02;86.48;102137.19;1542342;91;21055;-75
2022/01/15 09:40:39;;;;;;;19.02;6.72;;;;;;;1.04;86.38;102133.03;1563939;90;21013;-74
2022/01/15 09:43:04;;;;;;;15.70;6.22;;;;;;;1.03;86.34;102126.20;1564786;89;21148;-75
2022/01/15 09:45:31;;;;;;;17.37;5.87;;;;;;;1.05;86.35;102129.25;1550499;89;512186;-75
2022/01/15 09:48:02;;;;;;;17.30;5.72;;;;;;;1.04;86.32;102130.49;1561497;90;21176;-76
2022/01/15 09:50:33;;;;;;;15.25;5.62;;;;;;;1.05;86.32;102139.84;1561121;90;21174;-75
2022/01/15 09:52:59;;;;;;;15.63;5.65;;;;;;;1.05;86.34;102141.12;1541638;91;21134;-76
2022/01/15 09:55:26;;;;;;;13.30;5.20;;;;;;;1.07;86.40;102138.24;1559129;91;21194;-75
2022/01/15 09:57:56;;;;;;;18.85;5.67;;;;;;;1.09;86.42;102131.14;1559744;91;21381;-76
2022/01/15 10:00:24;;;;;;;;;;;;;;;1.13;86.42;102128.34;1563319;90;21422;-75
2022/01/15 10:02:52;;;;;;;15.25;6.28;;;;;;;1.12;86.37;102138.93;1557700;90;20223;-73
2022/01/15 10:05:19;;;;;;;19.82;5.83;;;;;;;1.11;86.35;102136.31;1539873;92;21045;-74
2022/01/15 10:08:01;;;;;;;21.00;6.40;;;;;;;1.10;86.37;102142.20;1560474;91;22101;-74
2022/01/15 10:10:31;;;;;;;19.82;5.83;;;;;;;1.10;86.42;102141.81;1557896;90;21527;-74
2022/01/15 10:13:17;;;;;;;17.73;5.65;;;;;;;1.09;86.37;102145.16;1550517;90;21697;-74
2022/01/15 10:16:00;;;;;;;18.98;6.72;;;;;;;1.08;86.36;102147.23;1531204;91;21038;-73
2022/01/15 10:18:30;;;;;;;19.48;6.65;;;;;;;1.06;86.36;102137.38;1560884;91;21012;-74
2022/01/15 10:21:12;;;;;;;19.20;5.83;;;;;;;1.04;86.38;102136.42;1552669;89;20999;-75
2022/01/15 10:23:56;;;;;;;11.12;5.35;;;;;;;1.04;86.38;102134.31;1556734;89;20996;-74
2022/01/15 10:26:36;;;;;;;20.70;6.22;;;;;;;1.03;86.39;102134.71;1558222;89;20980;-78
2022/01/15 10:29:02;;;;;;;15.65;5.90;;;;;;;1.04;86.42;102132.61;1559588;91;21044;-76
2022/01/15 10:31:32;;;;;;;18.90;6.03;;;;;;;1.07;86.46;102141.66;1556564;91;21068;-76
2022/01/15 10:34:01;;;;;;;15.40;5.20;;;;;;;1.08;86.46;102139.59;1543051;91;21510;-77
2022/01/15 10:36:32;;;;;;;18.52;5.60;;;;;;;1.11;86.49;102141.41;1514876;92;21029;-76
2022/01/15 10:39:21;;;;;;;34.73;16.23;;;;;;;1.16;86.55;102137.40;1525713;92;20984;-76
2022/01/15 10:41:49;;;;;;;24.50;11.40;;;;;;;1.20;86.53;102137.61;1546129;92;21098;-76
2022/01/15 10:44:35;;;;;;;27.37;10.28;;;;;;;1.23;86.51;102127.56;1551744;90;20960;-77
2022/01/15 10:47:10;;;;;;;39.58;13.70;;;;;;;1.26;86.50;102131.93;1552405;92;20955;-75
2022/01/15 10:49:38;;;;;;;30.23;8.53;;;;;;;1.29;86.50;102134.63;1481246;95;21447;-80
2022/01/15 10:52:08;;;;;;;58.83;34.67;;;;;;;1.32;86.50;102128.39;1477993;95;21080;-77
2022/01/15 10:54:51;;;;;;;40.48;21.68;;;;;;;1.37;86.50;102133.70;1469321;95;21225;-78
2022/01/15 10:57:21;;;;;;;33.45;15.30;;;;;;;1.40;86.46;102136.39;1476004;95;21210;-79
2022/01/15 11:00:02;;;;;;;33.85;16.07;;;;;;;1.40;86.40;102131.29;1476142;95;21136;-79
2022/01/15 11:02:35;;;;;;;77.72;34.13;;;;;;;1.42;86.42;102132.23;1473479;95;21589;-77
2022/01/15 11:05:03;;;;;;;26.70;14.05;;;;;;;1.44;86.40;102125.13;1476709;95;21169;-75
2022/01/15 11:07:34;;;;;;;44.13;23.83;;;;;;;1.46;86.39;102123.92;1470905;95;21152;-76
2022/01/15 11:10:02;;;;;;;29.63;14.13;;;;;;;1.48;86.44;102121.04;1477569;95;21141;-75
2022/01/15 11:12:28;;;;;;;14.65;6.53;;;;;;;1.51;86.43;102119.91;1477251;95;21156;-75
2022/01/15 11:14:54;;;;;;;11.43;5.27;;;;;;;1.54;86.41;102115.81;1491269;94;21023;-75
2022/01/15 11:17:20;;;;;;;18.32;8.08;;;;;;;1.52;86.29;102117.42;1511602;92;21137;-76
2022/01/15 11:19:51;;;;;;;16.35;6.45;;;;;;;1.52;86.31;102122.92;1515947;91;21216;-76
2022/01/15 11:22:22;;;;;;;13.80;5.58;;;;;;;1.54;86.35;102116.22;1514927;92;21710;-75
2022/01/15 11:24:51;;;;;;;20.60;6.33;;;;;;;1.54;86.33;102111.99;1513305;92;21184;-76
2022/01/15 11:27:18;;;;;;;15.18;5.45;;;;;;;1.58;86.41;102106.20;1557813;89;20988;-76
2022/01/15 11:29:46;;;;;;;14.25;6.53;;;;;;;1.62;86.39;102104.66;1593906;88;20976;-76
2022/01/15 11:32:17;;;;;;;16.65;5.60;;;;;;;1.64;86.41;102098.81;1594967;89;21850;-77
2022/01/15 11:35:06;;;;;;;17.37;5.33;;;;;;;1.69;86.40;102092.64;1562487;90;20937;-74
2022/01/15 11:37:53;;;;;;;24.12;15.50;;;;;;;1.68;86.28;102098.55;1545763;92;21008;-77
2022/01/15 11:40:39;;;;;;;26.68;13.28;;;;;;;1.72;86.30;102097.87;1561319;91;20951;-76
2022/01/15 11:43:30;;;;;;;;;;;;;;;1.77;86.35;102094.25;1562202;91;20938;-78
2022/01/15 11:45:59;;;;;;;47.15;25.30;;;;;;;1.80;86.35;102088.88;1529285;91;20159;-77